Time;durP1;ratioP1;P1;durP2;ratioP2;P2;SDS_P1;SDS_P2;PMS_P1;PMS_P2;Temp;Humidity;BMP_temperature;BMP_pressure;BME280_temperature;BME280_humidity;BME280_pressure;Samples;Min_cycle;Max_cycle;Signal;HPM_P1;HPM_P2
2021/09/04 00:00:08;;;;;;;27.45;16.17;;;;;;;;;;5011612;28;20182;-73
2021/09/04 00:02:33;;;;;;;24.88;15.82;;;;;;;;;;5032377;28;20247;-72
2021/09/04 00:04:58;;;;;;;25.85;17.08;;;;;;;;;;5031806;28;20198;-72
2021/09/04 00:07:27;;;;;;;29.92;16.58;;;;;;;;;;5034395;28;20260;-72
2021/09/04 00:09:53;;;;;;;24.33;14.75;;;;;;;;;;5028202;28;20182;-72
2021/09/04 00:12:18;;;;;;;24.00;15.80;;;;;;;;;;5032596;28;20217;-72
2021/09/04 00:14:43;;;;;;;27.95;16.27;;;;;;;;;;5015379;28;20178;-72
2021/09/04 00:17:08;;;;;;;28.10;16.02;;;;;;;;;;5029140;28;20247;-72
2021/09/04 00:19:33;;;;;;;27.90;15.55;;;;;;;;;;5014062;28;20227;-72
2021/09/04 00:21:59;;;;;;;23.58;16.35;;;;;;;;;;5033231;28;20678;-71
2021/09/04 00:24:24;;;;;;;27.02;15.10;;;;;;;;;;5015003;28;20170;-72
2021/09/04 00:26:49;;;;;;;26.70;16.10;;;;;;;;;;5020062;28;20189;-71
2021/09/04 00:29:14;;;;;;;24.23;15.18;;;;;;;;;;5026584;28;20258;-72
2021/09/04 00:31:39;;;;;;;22.75;15.85;;;;;;;;;;5030077;28;20206;-72
2021/09/04 00:34:05;;;;;;;27.17;15.23;;;;;;;;;;5033390;28;20174;-72
2021/09/04 00:36:30;;;;;;;28.02;14.95;;;;;;;;;;5029850;28;20301;-71
2021/09/04 00:38:55;;;;;;;22.80;14.88;;;;;;;;;;5013398;28;20186;-71
2021/09/04 00:41:21;;;;;;;24.70;14.63;;;;;;;;;;5028929;28;20277;-72
2021/09/04 00:43:47;;;;;;;24.52;15.40;;;;;;;;;;5033648;28;20709;-72
2021/09/04 00:46:12;;;;;;;29.45;16.35;;;;;;;;;;5031110;28;20189;-72
2021/09/04 00:48:38;;;;;;;20.98;15.02;;;;;;;;;;5020793;28;20198;-72
2021/09/04 00:51:03;;;;;;;24.25;14.57;;;;;;;;;;5030176;28;20221;-72
2021/09/04 00:53:29;;;;;;;25.48;15.57;;;;;;;;;;5031701;28;20233;-72
2021/09/04 00:55:54;;;;;;;19.88;13.15;;;;;;;;;;5032130;28;20210;-72
2021/09/04 00:58:19;;;;;;;21.08;13.57;;;;;;;;;;5013772;28;20206;-72
2021/09/04 01:00:49;;;;;;;28.65;15.73;;;;;;;;;;5028388;28;20706;-72
2021/09/04 01:03:14;;;;;;;22.58;14.18;;;;;;;;;;5022768;28;20270;-72
2021/09/04 01:05:39;;;;;;;23.25;13.93;;;;;;;;;;5021229;28;20432;-72
2021/09/04 01:08:05;;;;;;;22.08;12.90;;;;;;;;;;5023788;28;20644;-72
2021/09/04 01:10:30;;;;;;;24.20;14.57;;;;;;;;;;5032524;28;20174;-72
2021/09/04 01:12:55;;;;;;;20.42;13.50;;;;;;;;;;5032101;28;20220;-72
2021/09/04 01:15:21;;;;;;;25.77;14.05;;;;;;;;;;5032621;28;20640;-72
2021/09/04 01:17:46;;;;;;;21.17;14.25;;;;;;;;;;5020341;28;20244;-72
2021/09/04 01:20:12;;;;;;;20.10;12.70;;;;;;;;;;5030662;28;20548;-72
2021/09/04 01:22:37;;;;;;;20.58;12.75;;;;;;;;;;5031379;28;20671;-72
2021/09/04 01:25:06;;;;;;;24.13;12.70;;;;;;;;;;5027135;28;20559;-72
2021/09/04 01:27:33;;;;;;;22.27;12.35;;;;;;;;;;5026481;28;20178;-72
2021/09/04 01:29:58;;;;;;;24.45;14.15;;;;;;;;;;5028955;28;20180;-72
2021/09/04 01:32:23;;;;;;;22.25;13.05;;;;;;;;;;5028828;28;20202;-72
2021/09/04 01:34:48;;;;;;;20.27;12.35;;;;;;;;;;5031846;28;20285;-72
2021/09/04 01:37:14;;;;;;;24.77;13.30;;;;;;;;;;5029492;28;20202;-71
2021/09/04 01:39:39;;;;;;;22.83;12.90;;;;;;;;;;5025742;28;20706;-72
2021/09/04 01:42:04;;;;;;;24.85;13.18;;;;;;;;;;5016865;28;20206;-73
2021/09/04 01:44:29;;;;;;;28.17;13.25;;;;;;;;;;5033757;28;20265;-71
2021/09/04 01:46:54;;;;;;;22.55;12.90;;;;;;;;;;5033743;28;20257;-72
2021/09/04 01:49:20;;;;;;;24.50;12.85;;;;;;;;;;5013604;28;20178;-72
2021/09/04 01:51:46;;;;;;;22.00;13.02;;;;;;;;;;5030719;28;20624;-72
2021/09/04 01:54:11;;;;;;;26.45;12.77;;;;;;;;;;5011499;28;20183;-71
2021/09/04 01:56:36;;;;;;;21.20;13.82;;;;;;;;;;5019811;28;20203;-72
2021/09/04 01:59:01;;;;;;;20.23;13.10;;;;;;;;;;5023527;28;20210;-72
2021/09/04 02:01:26;;;;;;;24.40;12.73;;;;;;;;;;5012321;28;20194;-72
2021/09/04 02:03:52;;;;;;;23.40;12.65;;;;;;;;;;5028577;28;20193;-71
2021/09/04 02:06:17;;;;;;;21.85;12.48;;;;;;;;;;5030998;28;20190;-71
2021/09/04 02:08:42;;;;;;;21.53;12.87;;;;;;;;;;5031748;28;20182;-72
2021/09/04 02:11:07;;;;;;;25.57;14.17;;;;;;;;;;5033827;23;20225;-70
2021/09/04 02:13:32;;;;;;;25.00;13.90;;;;;;;;;;5011396;28;20662;-69
2021/09/04 02:15:58;;;;;;;25.48;12.88;;;;;;;;;;4999482;28;20202;-69
2021/09/04 02:18:23;;;;;;;20.52;11.82;;;;;;;;;;5010166;28;20228;-69
2021/09/04 02:20:48;;;;;;;27.45;13.68;;;;;;;;;;5012171;28;20532;-69
2021/09/04 02:23:14;;;;;;;28.60;14.50;;;;;;;;;;5010900;28;20257;-69
2021/09/04 02:25:39;;;;;;;21.93;13.70;;;;;;;;;;5011076;28;20253;-69
2021/09/04 02:28:04;;;;;;;47.50;14.97;;;;;;;;;;5011610;28;20175;-68
2021/09/04 02:30:30;;;;;;;22.90;14.57;;;;;;;;;;5011770;28;20186;-69
2021/09/04 02:32:55;;;;;;;18.70;13.13;;;;;;;;;;5007832;28;20199;-70
2021/09/04 02:35:21;;;;;;;26.70;13.87;;;;;;;;;;5010495;28;20178;-69
2021/09/04 02:37:46;;;;;;;21.90;12.07;;;;;;;;;;5009379;28;20264;-69
2021/09/04 02:40:11;;;;;;;22.87;13.20;;;;;;;;;;5011563;28;20175;-70
2021/09/04 02:42:36;;;;;;;22.60;13.93;;;;;;;;;;4993476;28;20692;-69
2021/09/04 02:45:02;;;;;;;21.00;12.03;;;;;;;;;;5010842;28;20186;-70
2021/09/04 02:47:27;;;;;;;21.53;13.93;;;;;;;;;;5010941;28;20186;-69
2021/09/04 02:49:52;;;;;;;23.47;13.07;;;;;;;;;;5010142;28;20562;-68
2021/09/04 02:52:17;;;;;;;24.97;12.80;;;;;;;;;;5010521;28;20199;-67
2021/09/04 02:54:42;;;;;;;26.00;13.90;;;;;;;;;;5010014;28;20221;-68
2021/09/04 02:57:08;;;;;;;23.17;13.10;;;;;;;;;;5010647;28;20583;-70
2021/09/04 02:59:33;;;;;;;25.30;13.37;;;;;;;;;;5007889;28;20179;-67
2021/09/04 03:01:58;;;;;;;29.87;14.20;;;;;;;;;;5007842;28;20677;-70
2021/09/04 03:04:23;;;;;;;21.20;13.30;;;;;;;;;;5011227;28;20611;-67
2021/09/04 03:06:48;;;;;;;29.77;14.60;;;;;;;;;;5010227;28;20198;-68
2021/09/04 03:09:14;;;;;;;21.43;13.17;;;;;;;;;;5010817;28;20175;-68
2021/09/04 03:11:39;;;;;;;19.37;12.80;;;;;;;;;;5010122;28;20218;-68
2021/09/04 03:14:04;;;;;;;23.73;13.37;;;;;;;;;;5009079;28;20193;-68
2021/09/04 03:16:29;;;;;;;31.27;12.43;;;;;;;;;;5001238;28;20310;-68
2021/09/04 03:18:55;;;;;;;22.30;12.63;;;;;;;;;;5007992;28;20178;-69
2021/09/04 03:21:20;;;;;;;21.17;13.77;;;;;;;;;;5011277;28;20210;-68
2021/09/04 03:23:45;;;;;;;24.17;15.40;;;;;;;;;;5009003;28;20190;-68
2021/09/04 03:26:10;;;;;;;20.87;13.63;;;;;;;;;;5009798;28;20182;-69
2021/09/04 03:28:35;;;;;;;24.50;13.57;;;;;;;;;;5009942;28;20565;-67
2021/09/04 03:31:00;;;;;;;22.80;14.93;;;;;;;;;;5007430;28;20183;-68
2021/09/04 03:33:26;;;;;;;24.10;14.67;;;;;;;;;;5009931;28;20195;-68
2021/09/04 03:35:51;;;;;;;20.67;13.73;;;;;;;;;;5010270;28;20209;-68
2021/09/04 03:38:17;;;;;;;22.83;13.53;;;;;;;;;;5010374;28;20183;-69
2021/09/04 03:40:42;;;;;;;26.80;15.93;;;;;;;;;;5009981;28;20244;-68
2021/09/04 03:43:07;;;;;;;26.57;15.90;;;;;;;;;;5010775;28;20692;-69
2021/09/04 03:45:34;;;;;;;21.42;13.98;;;;;;;;;;5009340;28;20711;-70
2021/09/04 03:47:59;;;;;;;25.60;14.77;;;;;;;;;;5009979;28;20563;-69
2021/09/04 03:50:24;;;;;;;27.83;14.90;;;;;;;;;;5007311;28;20171;-70
2021/09/04 03:52:49;;;;;;;23.07;14.53;;;;;;;;;;5009505;28;20206;-71
2021/09/04 03:55:14;;;;;;;28.13;15.67;;;;;;;;;;5010919;28;20171;-69
2021/09/04 03:57:40;;;;;;;25.63;15.23;;;;;;;;;;5006933;28;20214;-70
2021/09/04 04:00:06;;;;;;;26.63;14.77;;;;;;;;;;5007428;28;20182;-69
2021/09/04 04:02:31;;;;;;;26.40;15.13;;;;;;;;;;5007894;28;20571;-67
2021/09/04 04:04:56;;;;;;;25.55;14.18;;;;;;;;;;5008305;28;20198;-69
2021/09/04 04:07:21;;;;;;;23.80;14.65;;;;;;;;;;5009609;28;20675;-68
2021/09/04 04:09:46;;;;;;;24.80;14.15;;;;;;;;;;5009031;28;20546;-68
2021/09/04 04:12:11;;;;;;;24.95;14.73;;;;;;;;;;5008911;28;20681;-69
2021/09/04 04:14:37;;;;;;;25.00;14.77;;;;;;;;;;5010576;28;20175;-69
2021/09/04 04:17:02;;;;;;;24.58;15.57;;;;;;;;;;5002524;28;21074;-68
2021/09/04 04:19:27;;;;;;;24.27;14.63;;;;;;;;;;5007519;28;20234;-69
2021/09/04 04:21:53;;;;;;;26.52;15.40;;;;;;;;;;5008242;28;20215;-68
2021/09/04 04:24:18;;;;;;;23.38;15.32;;;;;;;;;;5009307;28;20179;-69
2021/09/04 04:26:43;;;;;;;25.60;15.32;;;;;;;;;;5007904;28;20194;-68
2021/09/04 04:29:08;;;;;;;26.63;14.90;;;;;;;;;;5010522;28;20183;-68
2021/09/04 04:31:34;;;;;;;22.58;14.32;;;;;;;;;;5011313;28;20237;-69
2021/09/04 04:34:00;;;;;;;24.85;14.63;;;;;;;;;;5010852;28;20190;-68
2021/09/04 04:36:25;;;;;;;26.15;15.10;;;;;;;;;;5012325;28;20203;-69
2021/09/04 04:38:50;;;;;;;22.63;14.18;;;;;;;;;;5012875;28;20179;-69
2021/09/04 04:41:15;;;;;;;25.25;15.82;;;;;;;;;;5011939;28;20225;-70
2021/09/04 04:43:40;;;;;;;24.75;15.00;;;;;;;;;;5014241;28;20712;-69
2021/09/04 04:46:06;;;;;;;23.85;14.50;;;;;;;;;;4994892;28;20556;-67
2021/09/04 04:48:33;;;;;;;23.83;13.82;;;;;;;;;;5013002;28;20183;-70
2021/09/04 04:50:58;;;;;;;27.58;16.40;;;;;;;;;;5006763;28;20349;-68
2021/09/04 04:53:23;;;;;;;20.70;14.00;;;;;;;;;;5011395;28;20280;-68
2021/09/04 04:55:48;;;;;;;23.52;14.77;;;;;;;;;;5012724;28;20653;-67
2021/09/04 04:58:14;;;;;;;19.98;13.82;;;;;;;;;;5010987;28;20186;-68
2021/09/04 05:00:39;;;;;;;24.25;14.32;;;;;;;;;;5004856;28;20549;-68
2021/09/04 05:03:04;;;;;;;23.42;15.02;;;;;;;;;;4996389;28;20191;-69
2021/09/04 05:05:30;;;;;;;24.40;14.05;;;;;;;;;;4998093;28;20224;-69
2021/09/04 05:07:55;;;;;;;23.00;14.95;;;;;;;;;;4993579;28;20190;-70
2021/09/04 05:10:21;;;;;;;23.47;13.90;;;;;;;;;;5011720;28;20205;-69
2021/09/04 05:12:46;;;;;;;22.63;14.82;;;;;;;;;;5010976;28;20218;-68
2021/09/04 05:15:11;;;;;;;22.70;15.38;;;;;;;;;;5012489;28;20179;-70
2021/09/04 05:17:36;;;;;;;25.08;13.98;;;;;;;;;;5009614;28;20658;-69
2021/09/04 05:20:02;;;;;;;21.92;14.05;;;;;;;;;;5010766;28;20190;-69
2021/09/04 05:22:27;;;;;;;21.58;14.10;;;;;;;;;;5005036;28;20195;-69
2021/09/04 05:24:52;;;;;;;22.65;14.35;;;;;;;;;;5011050;28;20186;-68
2021/09/04 05:27:17;;;;;;;21.33;13.35;;;;;;;;;;5007306;28;20798;-69
2021/09/04 05:29:43;;;;;;;22.45;14.65;;;;;;;;;;4993609;28;20190;-69
2021/09/04 05:32:08;;;;;;;23.33;13.32;;;;;;;;;;4995096;28;20199;-70
2021/09/04 05:34:33;;;;;;;20.25;13.65;;;;;;;;;;5008295;28;20274;-69
2021/09/04 05:36:59;;;;;;;20.52;13.20;;;;;;;;;;5010367;28;20293;-68
2021/09/04 05:39:25;;;;;;;18.33;13.70;;;;;;;;;;5011929;28;20179;-69
2021/09/04 05:41:50;;;;;;;20.65;13.35;;;;;;;;;;5011297;28;20237;-70
2021/09/04 05:44:15;;;;;;;22.48;12.65;;;;;;;;;;5010964;28;20167;-70
2021/09/04 05:46:40;;;;;;;19.38;12.55;;;;;;;;;;5006039;28;20191;-70
2021/09/04 05:49:05;;;;;;;24.58;14.13;;;;;;;;;;4994482;28;20551;-69
2021/09/04 05:51:30;;;;;;;21.48;13.38;;;;;;;;;;5004744;28;20195;-69
2021/09/04 05:53:55;;;;;;;21.27;13.15;;;;;;;;;;5009295;28;20179;-70
2021/09/04 05:56:21;;;;;;;19.67;13.32;;;;;;;;;;5010253;28;20210;-70
2021/09/04 05:58:46;;;;;;;24.55;14.65;;;;;;;;;;5010328;28;20199;-70
2021/09/04 06:01:11;;;;;;;21.05;14.10;;;;;;;;;;5010019;28;20274;-70
2021/09/04 06:03:37;;;;;;;19.93;13.50;;;;;;;;;;5007251;28;20190;-69
2021/09/04 06:06:02;;;;;;;21.13;13.15;;;;;;;;;;5008625;28;20506;-70
2021/09/04 06:08:27;;;;;;;27.05;13.85;;;;;;;;;;4994268;28;20171;-69
2021/09/04 06:10:52;;;;;;;23.43;13.90;;;;;;;;;;5012151;28;20182;-69
2021/09/04 06:13:18;;;;;;;20.88;14.50;;;;;;;;;;5011990;28;20527;-70
2021/09/04 06:15:43;;;;;;;21.60;14.45;;;;;;;;;;5010297;28;20183;-69
2021/09/04 06:18:09;;;;;;;22.45;12.70;;;;;;;;;;5012089;28;20846;-69
2021/09/04 06:20:34;;;;;;;21.65;13.43;;;;;;;;;;5011897;28;20171;-69
2021/09/04 06:22:59;;;;;;;20.83;13.00;;;;;;;;;;5011938;28;20202;-69
2021/09/04 06:25:24;;;;;;;23.48;13.68;;;;;;;;;;5011753;28;20177;-69
2021/09/04 06:27:50;;;;;;;19.15;12.80;;;;;;;;;;5012069;28;20652;-69
2021/09/04 06:30:15;;;;;;;19.43;12.73;;;;;;;;;;5011447;28;20175;-69
2021/09/04 06:32:40;;;;;;;19.88;13.25;;;;;;;;;;5011736;28;21003;-69
2021/09/04 06:35:06;;;;;;;20.02;13.02;;;;;;;;;;5011616;28;20178;-70
2021/09/04 06:37:31;;;;;;;21.38;13.68;;;;;;;;;;5011886;28;20565;-69
2021/09/04 06:39:56;;;;;;;20.88;12.73;;;;;;;;;;5011503;28;20608;-70
2021/09/04 06:42:21;;;;;;;18.08;13.00;;;;;;;;;;5011679;28;20195;-69
2021/09/04 06:44:47;;;;;;;23.75;12.68;;;;;;;;;;5010723;28;20187;-69
2021/09/04 06:47:12;;;;;;;18.45;13.27;;;;;;;;;;5011797;28;20179;-69
2021/09/04 06:49:37;;;;;;;23.98;13.85;;;;;;;;;;5011166;28;20258;-70
2021/09/04 06:52:02;;;;;;;20.50;13.90;;;;;;;;;;5011853;28;20203;-69
2021/09/04 06:54:28;;;;;;;20.00;14.48;;;;;;;;;;5011339;28;20561;-69
2021/09/04 06:56:53;;;;;;;21.80;14.45;;;;;;;;;;5011483;28;20218;-69
2021/09/04 06:59:18;;;;;;;23.08;14.50;;;;;;;;;;5010808;28;20649;-70
2021/09/04 07:01:44;;;;;;;19.42;14.88;;;;;;;;;;5009995;28;20254;-70
2021/09/04 07:04:09;;;;;;;18.70;13.43;;;;;;;;;;5011034;28;20268;-71
2021/09/04 07:06:35;;;;;;;22.10;13.30;;;;;;;;;;5009991;28;20175;-69
2021/09/04 07:09:00;;;;;;;20.48;13.63;;;;;;;;;;4992525;28;20178;-70
2021/09/04 07:11:25;;;;;;;20.17;13.57;;;;;;;;;;5009917;28;20635;-69
2021/09/04 07:13:50;;;;;;;23.30;14.73;;;;;;;;;;5011253;28;20226;-69
2021/09/04 07:16:15;;;;;;;18.30;12.65;;;;;;;;;;5010311;28;20206;-69
2021/09/04 07:18:41;;;;;;;18.90;12.63;;;;;;;;;;5011376;28;20700;-69
2021/09/04 07:21:06;;;;;;;22.88;13.27;;;;;;;;;;4990821;28;20199;-68
2021/09/04 07:23:31;;;;;;;20.90;13.30;;;;;;;;;;5011138;28;20205;-69
2021/09/04 07:25:56;;;;;;;21.85;13.02;;;;;;;;;;5008572;28;21714;-66
2021/09/04 07:28:21;;;;;;;20.52;14.13;;;;;;;;;;5011000;28;20673;-69
2021/09/04 07:30:48;;;;;;;19.10;13.53;;;;;;;;;;5009646;28;20648;-69
2021/09/04 07:33:13;;;;;;;17.30;12.52;;;;;;;;;;5010000;28;20431;-68
2021/09/04 07:35:38;;;;;;;18.60;12.75;;;;;;;;;;5009753;28;20183;-69
2021/09/04 07:38:03;;;;;;;17.63;14.00;;;;;;;;;;5008458;28;20238;-68
2021/09/04 07:40:28;;;;;;;20.02;12.63;;;;;;;;;;5008580;28;20188;-68
2021/09/04 07:42:54;;;;;;;23.35;14.68;;;;;;;;;;5009089;28;20198;-68
2021/09/04 07:45:19;;;;;;;20.50;13.30;;;;;;;;;;5010940;28;20207;-69
2021/09/04 07:47:44;;;;;;;18.83;13.25;;;;;;;;;;5011016;28;20471;-71
2021/09/04 07:50:09;;;;;;;17.60;12.43;;;;;;;;;;5007269;28;20573;-69
2021/09/04 07:52:35;;;;;;;18.17;13.23;;;;;;;;;;5009774;28;20441;-69
2021/09/04 07:55:00;;;;;;;19.67;13.80;;;;;;;;;;5009644;28;20183;-69
2021/09/04 07:57:25;;;;;;;20.70;14.00;;;;;;;;;;5008270;28;20261;-69
2021/09/04 07:59:52;;;;;;;21.58;14.85;;;;;;;;;;5012915;28;20174;-69
2021/09/04 08:02:17;;;;;;;20.55;12.95;;;;;;;;;;5012308;28;20207;-69
2021/09/04 08:04:42;;;;;;;21.05;12.55;;;;;;;;;;5011240;28;20171;-67
2021/09/04 08:07:08;;;;;;;19.30;13.00;;;;;;;;;;5014374;28;20175;-69
2021/09/04 08:09:33;;;;;;;19.73;12.95;;;;;;;;;;5011414;28;20195;-68
2021/09/04 08:11:58;;;;;;;20.10;12.98;;;;;;;;;;5029629;23;20270;-70
2021/09/04 08:14:23;;;;;;;19.93;12.93;;;;;;;;;;5010337;28;20262;-71
2021/09/04 08:16:48;;;;;;;17.00;12.38;;;;;;;;;;5013252;28;20482;-70
2021/09/04 08:19:14;;;;;;;20.27;12.15;;;;;;;;;;5012971;28;20179;-70
2021/09/04 08:21:39;;;;;;;22.23;15.07;;;;;;;;;;5014238;28;20206;-70
2021/09/04 08:24:04;;;;;;;20.00;12.30;;;;;;;;;;5012287;28;20182;-70
2021/09/04 08:26:29;;;;;;;15.10;11.80;;;;;;;;;;5015086;28;20601;-70
2021/09/04 08:28:55;;;;;;;15.33;11.83;;;;;;;;;;5012006;28;20466;-69
2021/09/04 08:31:20;;;;;;;16.33;12.50;;;;;;;;;;5008472;28;20424;-68
2021/09/04 08:33:45;;;;;;;13.50;11.83;;;;;;;;;;5013688;28;20366;-69
2021/09/04 08:36:11;;;;;;;17.63;11.57;;;;;;;;;;5014940;28;20452;-68
2021/09/04 08:38:36;;;;;;;15.50;12.15;;;;;;;;;;5013590;28;20179;-69
2021/09/04 08:41:01;;;;;;;15.75;11.30;;;;;;;;;;5014670;28;20175;-68
2021/09/04 08:43:26;;;;;;;16.10;11.43;;;;;;;;;;4995109;28;20258;-67
2021/09/04 08:45:51;;;;;;;14.35;11.50;;;;;;;;;;5012133;28;20243;-69
2021/09/04 08:48:19;;;;;;;14.80;10.52;;;;;;;;;;5011582;28;20205;-69
2021/09/04 08:50:44;;;;;;;17.30;11.20;;;;;;;;;;5010014;28;20186;-69
2021/09/04 08:53:10;;;;;;;13.90;10.52;;;;;;;;;;5010161;28;20202;-69
2021/09/04 08:55:35;;;;;;;13.30;10.82;;;;;;;;;;5013455;28;20660;-69
2021/09/04 08:58:00;;;;;;;14.50;10.93;;;;;;;;;;5012417;28;20664;-68
2021/09/04 09:00:30;;;;;;;13.85;10.60;;;;;;;;;;5010215;28;20182;-68
2021/09/04 09:02:55;;;;;;;15.07;10.82;;;;;;;;;;5009877;28;20657;-68
2021/09/04 09:05:20;;;;;;;15.02;11.25;;;;;;;;;;5011193;28;20266;-69
2021/09/04 09:07:47;;;;;;;13.73;10.63;;;;;;;;;;5011519;28;20245;-69
2021/09/04 09:10:21;;;;;;;11.63;9.68;;;;;;;;;;5012982;28;20183;-68
2021/09/04 09:12:46;;;;;;;14.85;10.77;;;;;;;;;;5011132;28;20214;-68
2021/09/04 09:15:18;;;;;;;11.70;9.82;;;;;;;;;;5012569;28;20191;-68
2021/09/04 09:17:44;;;;;;;15.25;9.50;;;;;;;;;;5010395;28;20194;-69
2021/09/04 09:20:09;;;;;;;13.80;9.85;;;;;;;;;;5012962;28;20186;-68
2021/09/04 09:22:42;;;;;;;15.82;10.57;;;;;;;;;;5012245;28;20190;-69
2021/09/04 09:25:17;;;;;;;13.13;9.85;;;;;;;;;;5010311;28;20183;-69
2021/09/04 09:27:58;;;;;;;12.50;9.65;;;;;;;;;;5012820;28;20183;-69
2021/09/04 09:30:37;;;;;;;11.63;9.30;;;;;;;;;;5004362;28;20190;-68
2021/09/04 09:33:03;;;;;;;12.30;9.75;;;;;;;;;;5009967;28;20289;-69
2021/09/04 09:35:32;;;;;;;11.98;10.23;;;;;;;;;;5012364;28;20672;-68
2021/09/04 09:37:57;;;;;;;12.10;9.40;;;;;;;;;;5012514;28;20673;-69
2021/09/04 09:40:23;;;;;;;14.18;9.90;;;;;;;;;;5008565;28;20175;-67
2021/09/04 09:42:48;;;;;;;14.05;9.77;;;;;;;;;;5012282;28;20190;-68
2021/09/04 09:45:13;;;;;;;12.00;9.17;;;;;;;;;;5012627;28;20175;-68
2021/09/04 09:47:48;;;;;;;13.27;10.10;;;;;;;;;;5012644;28;20415;-69
2021/09/04 09:50:13;;;;;;;10.23;9.07;;;;;;;;;;5012151;28;20495;-69
2021/09/04 09:52:39;;;;;;;11.43;9.33;;;;;;;;;;5012034;28;20286;-69
2021/09/04 09:55:04;;;;;;;10.90;9.13;;;;;;;;;;5011789;28;20424;-68
2021/09/04 09:57:31;;;;;;;14.20;9.63;;;;;;;;;;5012269;28;20203;-68
2021/09/04 09:59:57;;;;;;;11.52;9.25;;;;;;;;;;5012123;28;20178;-68
2021/09/04 10:02:22;;;;;;;14.57;9.77;;;;;;;;;;5004239;28;20534;-69
2021/09/04 10:04:49;;;;;;;14.95;9.25;;;;;;;;;;5012365;28;20191;-69
2021/09/04 10:07:15;;;;;;;12.55;9.18;;;;;;;;;;5012280;28;20182;-68
2021/09/04 10:09:41;;;;;;;14.20;9.10;;;;;;;;;;5012068;28;20261;-69
2021/09/04 10:12:07;;;;;;;11.10;9.18;;;;;;;;;;5011792;28;20301;-68
2021/09/04 10:14:33;;;;;;;11.77;8.88;;;;;;;;;;5009286;28;20187;-69
2021/09/04 10:16:59;;;;;;;13.52;9.20;;;;;;;;;;5006160;28;20207;-70
2021/09/04 10:19:26;;;;;;;12.07;8.82;;;;;;;;;;5010488;28;20202;-69
2021/09/04 10:21:59;;;;;;;13.38;9.57;;;;;;;;;;5012158;28;20650;-69
2021/09/04 10:24:42;;;;;;;10.63;8.27;;;;;;;;;;5008554;28;20213;-68
2021/09/04 10:27:08;;;;;;;10.48;8.60;;;;;;;;;;5010499;28;20206;-69
2021/09/04 10:29:43;;;;;;;12.52;8.90;;;;;;;;;;5013019;28;20167;-69
2021/09/04 10:32:13;;;;;;;13.77;9.40;;;;;;;;;;5011723;28;20206;-69
2021/09/04 10:34:39;;;;;;;12.75;9.15;;;;;;;;;;5014385;28;20175;-68
2021/09/04 10:37:05;;;;;;;12.73;9.40;;;;;;;;;;4998500;28;20248;-68
2021/09/04 10:39:48;;;;;;;12.48;9.48;;;;;;;;;;5012255;28;20174;-69
2021/09/04 10:42:15;;;;;;;11.88;8.57;;;;;;;;;;5010323;28;20195;-70
2021/09/04 10:44:40;;;;;;;13.10;9.95;;;;;;;;;;5008782;28;20248;-69
2021/09/04 10:47:08;;;;;;;11.52;9.43;;;;;;;;;;5010252;28;20657;-69
2021/09/04 10:49:43;;;;;;;9.85;8.85;;;;;;;;;;5010162;28;20175;-69
2021/09/04 10:52:09;;;;;;;9.98;8.90;;;;;;;;;;5011052;28;20664;-69
2021/09/04 10:54:38;;;;;;;11.27;9.23;;;;;;;;;;5008655;28;20198;-69
2021/09/04 10:57:13;;;;;;;13.18;10.45;;;;;;;;;;5010108;28;20224;-70
2021/09/04 10:59:57;;;;;;;12.55;9.40;;;;;;;;;;5010194;28;20214;-69
2021/09/04 11:02:22;;;;;;;12.48;9.40;;;;;;;;;;4986535;28;20195;-68
2021/09/04 11:04:56;;;;;;;16.17;10.60;;;;;;;;;;5005321;28;20197;-69
2021/09/04 11:07:40;;;;;;;11.90;9.05;;;;;;;;;;5010011;28;20435;-69
2021/09/04 11:10:21;;;;;;;10.25;8.57;;;;;;;;;;5009437;28;20206;-69
2021/09/04 11:13:02;;;;;;;11.88;10.18;;;;;;;;;;5008463;28;20783;-69
2021/09/04 11:15:28;;;;;;;13.57;9.52;;;;;;;;;;5007241;28;20187;-68
2021/09/04 11:17:53;;;;;;;9.88;8.80;;;;;;;;;;5005913;28;20206;-69
2021/09/04 11:20:18;;;;;;;12.40;10.03;;;;;;;;;;5006043;28;20610;-69
2021/09/04 11:22:45;;;;;;;12.27;8.63;;;;;;;;;;5008646;28;20548;-69
2021/09/04 11:25:10;;;;;;;12.95;9.38;;;;;;;;;;4984567;28;20667;-69
2021/09/04 11:27:43;;;;;;;10.47;8.67;;;;;;;;;;5007885;28;20195;-69
2021/09/04 11:30:08;;;;;;;14.05;9.68;;;;;;;;;;5007545;28;20953;-69
2021/09/04 11:32:34;;;;;;;11.55;9.15;;;;;;;;;;5010575;28;20206;-69
2021/09/04 11:35:00;;;;;;;10.33;8.60;;;;;;;;;;5014695;28;20191;-69
2021/09/04 11:37:26;;;;;;;11.48;8.45;;;;;;;;;;5010093;28;20582;-69
2021/09/04 11:39:53;;;;;;;9.57;8.57;;;;;;;;;;5009520;28;20179;-69
2021/09/04 11:42:19;;;;;;;11.30;9.23;;;;;;;;;;5011189;28;20270;-69
2021/09/04 11:44:48;;;;;;;10.50;9.23;;;;;;;;;;5014290;28;20175;-69
2021/09/04 11:47:14;;;;;;;10.23;8.93;;;;;;;;;;5013946;28;20191;-69
2021/09/04 11:49:46;;;;;;;9.70;8.60;;;;;;;;;;4992354;28;20183;-69
2021/09/04 11:52:22;;;;;;;9.93;8.60;;;;;;;;;;5013492;28;20731;-69
2021/09/04 11:54:47;;;;;;;10.40;9.18;;;;;;;;;;5010490;28;20273;-70
2021/09/04 11:57:26;;;;;;;10.90;8.73;;;;;;;;;;4996464;28;20278;-69
2021/09/04 12:00:01;;;;;;;10.50;8.02;;;;;;;;;;5010477;28;20171;-69
2021/09/04 12:02:27;;;;;;;11.13;8.65;;;;;;;;;;5012038;28;20707;-69
2021/09/04 12:04:52;;;;;;;10.90;9.07;;;;;;;;;;5011320;28;20179;-69
2021/09/04 12:07:18;;;;;;;10.23;8.40;;;;;;;;;;5012269;28;20187;-69
2021/09/04 12:09:43;;;;;;;11.07;7.95;;;;;;;;;;5010710;28;20194;-70
2021/09/04 12:12:08;;;;;;;11.13;8.67;;;;;;;;;;5008759;28;20214;-70
2021/09/04 12:14:34;;;;;;;10.95;9.10;;;;;;;;;;5013017;28;20417;-69
2021/09/04 12:16:59;;;;;;;9.00;7.97;;;;;;;;;;5013345;28;20282;-69
2021/09/04 12:19:25;;;;;;;11.60;8.15;;;;;;;;;;5012934;28;20270;-69
2021/09/04 12:21:50;;;;;;;10.53;8.13;;;;;;;;;;5013641;28;20735;-70
2021/09/04 12:24:16;;;;;;;10.40;7.93;;;;;;;;;;5010655;28;20483;-69
2021/09/04 12:26:50;;;;;;;10.27;8.17;;;;;;;;;;5014131;28;20548;-69
2021/09/04 12:29:15;;;;;;;10.70;8.35;;;;;;;;;;5012789;28;20831;-69
2021/09/04 12:31:41;;;;;;;9.90;7.60;;;;;;;;;;5014374;28;20203;-70
2021/09/04 12:34:06;;;;;;;10.00;7.93;;;;;;;;;;5011323;28;20439;-69
2021/09/04 12:36:32;;;;;;;11.67;9.10;;;;;;;;;;5014123;28;20198;-69
2021/09/04 12:38:58;;;;;;;14.47;8.10;;;;;;;;;;5010523;28;20214;-70
2021/09/04 12:41:30;;;;;;;14.80;8.63;;;;;;;;;;5010738;28;20181;-68
2021/09/04 12:44:06;;;;;;;11.15;8.80;;;;;;;;;;5011199;28;20183;-69
2021/09/04 12:46:31;;;;;;;10.40;7.93;;;;;;;;;;5012364;28;20190;-68
2021/09/04 12:49:17;;;;;;;9.50;8.05;;;;;;;;;;5012582;28;20186;-70
2021/09/04 12:51:42;;;;;;;11.27;8.60;;;;;;;;;;5006879;28;20297;-69
2021/09/04 12:54:07;;;;;;;9.20;7.63;;;;;;;;;;5012485;28;20270;-69
2021/09/04 12:56:33;;;;;;;9.73;7.65;;;;;;;;;;5012201;28;20870;-69
2021/09/04 12:59:03;;;;;;;10.75;7.45;;;;;;;;;;5010524;28;20175;-69
2021/09/04 13:01:28;;;;;;;13.65;8.48;;;;;;;;;;5012556;28;20282;-69
2021/09/04 13:03:53;;;;;;;10.02;8.07;;;;;;;;;;5012646;28;20681;-68
2021/09/04 13:06:19;;;;;;;10.57;8.07;;;;;;;;;;5011830;28;20270;-68
2021/09/04 13:08:44;;;;;;;10.70;8.57;;;;;;;;;;5009931;28;20467;-69
2021/09/04 13:11:09;;;;;;;10.88;8.02;;;;;;;;;;5010094;28;20561;-70
2021/09/04 13:13:34;;;;;;;11.27;7.90;;;;;;;;;;5013458;28;20214;-70
2021/09/04 13:15:59;;;;;;;9.70;8.10;;;;;;;;;;5012669;28;20183;-69
2021/09/04 13:18:25;;;;;;;9.07;8.17;;;;;;;;;;5013320;28;20498;-67
2021/09/04 13:20:50;;;;;;;9.57;7.68;;;;;;;;;;5012624;28;20194;-67
2021/09/04 13:23:15;;;;;;;10.93;7.38;;;;;;;;;;5013074;28;20187;-70
2021/09/04 13:25:40;;;;;;;11.73;8.17;;;;;;;;;;5010956;28;20202;-69
2021/09/04 13:28:06;;;;;;;11.82;7.40;;;;;;;;;;5010995;28;20433;-68
2021/09/04 13:30:31;;;;;;;9.32;7.55;;;;;;;;;;5011892;28;20179;-68
2021/09/04 13:32:56;;;;;;;9.77;7.27;;;;;;;;;;5011426;28;20210;-68
2021/09/04 13:35:21;;;;;;;9.97;7.03;;;;;;;;;;5009581;28;20424;-68
2021/09/04 13:37:48;;;;;;;9.07;7.50;;;;;;;;;;5011586;28;20222;-68
2021/09/04 13:40:13;;;;;;;13.30;7.95;;;;;;;;;;5011997;28;20414;-68
2021/09/04 13:42:38;;;;;;;8.88;7.32;;;;;;;;;;5012826;28;20199;-68
2021/09/04 13:45:03;;;;;;;11.50;6.77;;;;;;;;;;5011700;28;20187;-68
2021/09/04 13:47:29;;;;;;;7.35;6.15;;;;;;;;;;5011713;28;20258;-68
2021/09/04 13:49:54;;;;;;;8.30;7.37;;;;;;;;;;5012646;28;20175;-68
2021/09/04 13:52:19;;;;;;;8.88;7.68;;;;;;;;;;4989665;28;20203;-69
2021/09/04 13:54:44;;;;;;;8.57;7.43;;;;;;;;;;5008672;28;20767;-69
2021/09/04 13:57:09;;;;;;;9.93;6.85;;;;;;;;;;5010457;28;20214;-69
2021/09/04 13:59:36;;;;;;;8.25;7.05;;;;;;;;;;5010809;28;20299;-69
2021/09/04 14:02:01;;;;;;;10.23;8.00;;;;;;;;;;5009571;28;20300;-70
2021/09/04 14:04:26;;;;;;;8.15;6.93;;;;;;;;;;5009796;28;20175;-69
2021/09/04 14:06:52;;;;;;;8.70;6.97;;;;;;;;;;5014959;28;20195;-69
2021/09/04 14:09:17;;;;;;;10.70;7.10;;;;;;;;;;5018403;28;20187;-69
2021/09/04 14:11:43;;;;;;;9.32;6.43;;;;;;;;;;5018600;28;20693;-69
2021/09/04 14:14:08;;;;;;;12.30;7.30;;;;;;;;;;5018420;28;20634;-68